sensor_id;sensor_type;location;lat;lon;timestamp;pressure;altitude;pressure_sealevel;temperature;humidity
71956;BME280;59829;50.562;6.258;2022-12-17T00:03:31;96027.41;;;-4.67;100.00
71956;BME280;59829;50.562;6.258;2022-12-17T00:13:50;96031.19;;;-4.44;100.00
71956;BME280;59829;50.562;6.258;2022-12-17T00:24:09;96027.66;;;-4.33;100.00
71956;BME280;59829;50.562;6.258;2022-12-17T00:34:28;96038.56;;;-4.38;100.00
71956;BME280;59829;50.562;6.258;2022-12-17T00:44:47;96043.56;;;-4.38;100.00
71956;BME280;59829;50.562;6.258;2022-12-17T00:55:06;96043.50;;;-4.83;100.00
71956;BME280;59829;50.562;6.258;2022-12-17T01:05:24;96058.13;;;-4.62;100.00
71956;BME280;59829;50.562;6.258;2022-12-17T01:15:43;96066.56;;;-4.69;100.00
71956;BME280;59829;50.562;6.258;2022-12-17T01:26:02;96075.25;;;-4.91;100.00
71956;BME280;59829;50.562;6.258;2022-12-17T01:36:21;96077.00;;;-4.96;100.00
71956;BME280;59829;50.562;6.258;2022-12-17T01:46:46;96087.56;;;-5.36;100.00
71956;BME280;59829;50.562;6.258;2022-12-17T01:57:08;96106.78;;;-5.44;100.00
71956;BME280;59829;50.562;6.258;2022-12-17T02:08:00;96108.00;;;-5.72;100.00
71956;BME280;59829;50.562;6.258;2022-12-17T02:18:24;96106.72;;;-6.05;100.00
71956;BME280;59829;50.562;6.258;2022-12-17T02:28:48;96112.69;;;-6.20;100.00
71956;BME280;59829;50.562;6.258;2022-12-17T02:39:09;96114.47;;;-6.34;100.00
71956;BME280;59829;50.562;6.258;2022-12-17T02:49:28;96118.16;;;-6.75;100.00
71956;BME280;59829;50.562;6.258;2022-12-17T02:59:47;96120.88;;;-7.09;100.00
71956;BME280;59829;50.562;6.258;2022-12-17T03:10:06;96126.63;;;-7.04;100.00
71956;BME280;59829;50.562;6.258;2022-12-17T03:20:25;96138.28;;;-7.12;100.00
71956;BME280;59829;50.562;6.258;2022-12-17T03:30:44;96145.75;;;-7.09;100.00
71956;BME280;59829;50.562;6.258;2022-12-17T03:41:03;96152.44;;;-7.20;100.00
71956;BME280;59829;50.562;6.258;2022-12-17T03:51:22;96146.00;;;-7.65;100.00
71956;BME280;59829;50.562;6.258;2022-12-17T04:01:41;96140.25;;;-7.75;100.00
71956;BME280;59829;50.562;6.258;2022-12-17T04:12:00;96141.94;;;-7.86;100.00
71956;BME280;59829;50.562;6.258;2022-12-17T04:22:19;96150.28;;;-8.21;100.00
71956;BME280;59829;50.562;6.258;2022-12-17T04:32:38;96161.13;;;-8.54;100.00
71956;BME280;59829;50.562;6.258;2022-12-17T04:43:04;96170.22;;;-8.72;100.00
71956;BME280;59829;50.562;6.258;2022-12-17T04:53:23;96165.19;;;-9.06;100.00
71956;BME280;59829;50.562;6.258;2022-12-17T05:03:42;96174.25;;;-9.26;100.00
71956;BME280;59829;50.562;6.258;2022-12-17T05:14:01;96180.81;;;-9.50;100.00
71956;BME280;59829;50.562;6.258;2022-12-17T05:24:20;96188.16;;;-9.68;100.00
71956;BME280;59829;50.562;6.258;2022-12-17T05:34:39;96193.06;;;-9.80;100.00
71956;BME280;59829;50.562;6.258;2022-12-17T05:44:58;96202.91;;;-9.89;100.00
71956;BME280;59829;50.562;6.258;2022-12-17T05:55:17;96205.22;;;-10.15;100.00
71956;BME280;59829;50.562;6.258;2022-12-17T06:05:36;96219.13;;;-10.40;100.00
71956;BME280;59829;50.562;6.258;2022-12-17T06:15:55;96233.91;;;-10.49;100.00
71956;BME280;59829;50.562;6.258;2022-12-17T06:26:14;96224.75;;;-10.58;100.00
71956;BME280;59829;50.562;6.258;2022-12-17T06:36:33;96226.19;;;-10.80;100.00
71956;BME280;59829;50.562;6.258;2022-12-17T06:46:52;96247.59;;;-10.86;100.00
71956;BME280;59829;50.562;6.258;2022-12-17T06:57:30;96248.22;;;-11.04;100.00
71956;BME280;59829;50.562;6.258;2022-12-17T07:07:56;96256.31;;;-11.17;100.00
71956;BME280;59829;50.562;6.258;2022-12-17T07:18:22;96263.69;;;-11.23;100.00
71956;BME280;59829;50.562;6.258;2022-12-17T07:38:44;96287.69;;;-11.12;100.00
71956;BME280;59829;50.562;6.258;2022-12-17T07:49:02;96299.16;;;-11.18;100.00
71956;BME280;59829;50.562;6.258;2022-12-17T07:59:21;96315.84;;;-11.02;100.00
71956;BME280;59829;50.562;6.258;2022-12-17T08:09:40;96320.69;;;-11.11;100.00
71956;BME280;59829;50.562;6.258;2022-12-17T08:19:59;96335.84;;;-10.87;100.00
71956;BME280;59829;50.562;6.258;2022-12-17T08:30:18;96341.75;;;-10.74;100.00
71956;BME280;59829;50.562;6.258;2022-12-17T08:40:37;96347.97;;;-10.31;100.00
71956;BME280;59829;50.562;6.258;2022-12-17T08:50:56;96356.56;;;-9.89;100.00
71956;BME280;59829;50.562;6.258;2022-12-17T09:01:15;96366.81;;;-9.50;100.00
71956;BME280;59829;50.562;6.258;2022-12-17T09:11:34;96363.81;;;-8.91;100.00
71956;BME280;59829;50.562;6.258;2022-12-17T09:21:53;96369.84;;;-8.02;100.00
71956;BME280;59829;50.562;6.258;2022-12-17T09:32:12;96367.41;;;-7.57;100.00
71956;BME280;59829;50.562;6.258;2022-12-17T09:42:50;96363.97;;;-6.99;100.00
71956;BME280;59829;50.562;6.258;2022-12-17T09:53:27;96377.09;;;-6.48;100.00
71956;BME280;59829;50.562;6.258;2022-12-17T10:03:49;96376.19;;;-5.17;100.00
71956;BME280;59829;50.562;6.258;2022-12-17T10:14:17;96371.41;;;-3.93;100.00
71956;BME280;59829;50.562;6.258;2022-12-17T10:24:44;96377.13;;;-2.39;100.00
71956;BME280;59829;50.562;6.258;2022-12-17T10:45:30;96377.34;;;-0.38;89.39
71956;BME280;59829;50.562;6.258;2022-12-17T10:55:55;96381.00;;;-0.48;82.47
71956;BME280;59829;50.562;6.258;2022-12-17T11:06:21;96392.09;;;-0.25;82.17
71956;BME280;59829;50.562;6.258;2022-12-17T11:16:50;96386.56;;;1.02;78.38
71956;BME280;59829;50.562;6.258;2022-12-17T11:27:17;96386.28;;;0.84;74.08
71956;BME280;59829;50.562;6.258;2022-12-17T11:37:47;96381.31;;;1.08;73.91
71956;BME280;59829;50.562;6.258;2022-12-17T11:48:14;96377.75;;;2.96;70.16
71956;BME280;59829;50.562;6.258;2022-12-17T12:19:51;96366.50;;;4.91;55.60
71956;BME280;59829;50.562;6.258;2022-12-17T12:30:19;96369.50;;;5.83;51.41
71956;BME280;59829;50.562;6.258;2022-12-17T12:40:46;96356.56;;;7.97;44.43
71956;BME280;59829;50.562;6.258;2022-12-17T12:51:22;96348.53;;;10.13;38.82
71956;BME280;59829;50.562;6.258;2022-12-17T13:01:42;96327.56;;;14.15;32.21
71956;BME280;59829;50.562;6.258;2022-12-17T13:32:17;96318.34;;;15.77;26.73
71956;BME280;59829;50.562;6.258;2022-12-17T13:42:27;96322.56;;;16.06;26.79
71956;BME280;59829;50.562;6.258;2022-12-17T13:52:29;96322.53;;;11.59;31.14
71956;BME280;59829;50.562;6.258;2022-12-17T14:02:34;96339.34;;;8.96;34.98
71956;BME280;59829;50.562;6.258;2022-12-17T14:12:38;96323.59;;;12.67;30.80
71956;BME280;59829;50.562;6.258;2022-12-17T14:22:44;96334.56;;;13.94;28.80
71956;BME280;59829;50.562;6.258;2022-12-17T14:32:46;96343.59;;;11.98;30.04
71956;BME280;59829;50.562;6.258;2022-12-17T14:42:47;96362.75;;;4.81;41.41
71956;BME280;59829;50.562;6.258;2022-12-17T14:52:51;96383.81;;;1.81;49.85
71956;BME280;59829;50.562;6.258;2022-12-17T15:02:54;96377.28;;;0.77;53.69
71956;BME280;59829;50.562;6.258;2022-12-17T15:12:56;96396.88;;;0.13;56.95
71956;BME280;59829;50.562;6.258;2022-12-17T15:22:56;96397.47;;;-0.38;58.78
71956;BME280;59829;50.562;6.258;2022-12-17T15:32:56;96410.09;;;-1.03;59.87
71956;BME280;59829;50.562;6.258;2022-12-17T15:42:57;96426.88;;;-1.40;59.79
71956;BME280;59829;50.562;6.258;2022-12-17T15:53:10;96430.53;;;-1.91;61.27
71956;BME280;59829;50.562;6.258;2022-12-17T16:03:10;96430.41;;;-2.28;63.31
71956;BME280;59829;50.562;6.258;2022-12-17T16:13:10;96441.03;;;-2.58;63.99
71956;BME280;59829;50.562;6.258;2022-12-17T16:23:11;96438.00;;;-2.76;66.30
71956;BME280;59829;50.562;6.258;2022-12-17T16:33:11;96446.72;;;-2.98;67.35
71956;BME280;59829;50.562;6.258;2022-12-17T16:43:11;96461.19;;;-3.12;68.78
71956;BME280;59829;50.562;6.258;2022-12-17T16:53:12;96468.13;;;-3.31;69.96
71956;BME280;59829;50.562;6.258;2022-12-17T17:03:13;96469.31;;;-3.55;71.97
71956;BME280;59829;50.562;6.258;2022-12-17T17:13:13;96475.84;;;-4.08;76.47
71956;BME280;59829;50.562;6.258;2022-12-17T17:23:13;96472.56;;;-4.11;78.39
71956;BME280;59829;50.562;6.258;2022-12-17T17:33:13;96474.28;;;-4.15;79.80
71956;BME280;59829;50.562;6.258;2022-12-17T17:43:14;96485.19;;;-4.22;80.93
71956;BME280;59829;50.562;6.258;2022-12-17T17:53:14;96480.44;;;-4.45;83.10
71956;BME280;59829;50.562;6.258;2022-12-17T18:03:15;96490.78;;;-4.80;83.22
71956;BME280;59829;50.562;6.258;2022-12-17T18:13:16;96501.72;;;-4.96;83.66
71956;BME280;59829;50.562;6.258;2022-12-17T18:23:43;96497.59;;;-5.03;84.51
71956;BME280;59829;50.562;6.258;2022-12-17T18:33:46;96496.09;;;-5.23;86.42
71956;BME280;59829;50.562;6.258;2022-12-17T18:43:47;96497.91;;;-5.46;87.60
71956;BME280;59829;50.562;6.258;2022-12-17T18:53:48;96491.19;;;-5.32;88.49
71956;BME280;59829;50.562;6.258;2022-12-17T19:03:49;96502.91;;;-5.43;90.13
71956;BME280;59829;50.562;6.258;2022-12-17T19:13:49;96523.25;;;-6.25;91.54
71956;BME280;59829;50.562;6.258;2022-12-17T19:23:57;96524.91;;;-6.27;95.52
71956;BME280;59829;50.562;6.258;2022-12-17T19:34:00;96535.75;;;-6.36;95.65
71956;BME280;59829;50.562;6.258;2022-12-17T19:44:03;96537.44;;;-6.47;93.70
71956;BME280;59829;50.562;6.258;2022-12-17T19:54:03;96535.00;;;-6.73;94.99
71956;BME280;59829;50.562;6.258;2022-12-17T20:04:04;96546.59;;;-6.84;93.32
71956;BME280;59829;50.562;6.258;2022-12-17T20:14:09;96557.41;;;-7.05;91.47
71956;BME280;59829;50.562;6.258;2022-12-17T20:24:11;96568.16;;;-7.20;92.13
71956;BME280;59829;50.562;6.258;2022-12-17T20:34:13;96570.66;;;-7.15;91.44
71956;BME280;59829;50.562;6.258;2022-12-17T20:44:14;96561.53;;;-7.27;91.82
71956;BME280;59829;50.562;6.258;2022-12-17T20:54:14;96548.22;;;-7.44;91.15
71956;BME280;59829;50.562;6.258;2022-12-17T21:04:14;96557.31;;;-7.60;91.35
71956;BME280;59829;50.562;6.258;2022-12-17T21:14:16;96544.06;;;-7.39;92.12
71956;BME280;59829;50.562;6.258;2022-12-17T21:24:17;96545.66;;;-7.69;91.96
71956;BME280;59829;50.562;6.258;2022-12-17T21:34:21;96567.97;;;-7.85;94.59
71956;BME280;59829;50.562;6.258;2022-12-17T21:44:23;96558.78;;;-8.02;95.86
71956;BME280;59829;50.562;6.258;2022-12-17T21:54:23;96584.22;;;-8.53;93.37
71956;BME280;59829;50.562;6.258;2022-12-17T22:04:24;96594.91;;;-8.65;97.65
71956;BME280;59829;50.562;6.258;2022-12-17T22:14:25;96592.22;;;-8.88;96.63
71956;BME280;59829;50.562;6.258;2022-12-17T22:24:25;96603.56;;;-9.17;95.23
71956;BME280;59829;50.562;6.258;2022-12-17T22:34:26;96603.59;;;-9.14;96.21
71956;BME280;59829;50.562;6.258;2022-12-17T22:44:26;96612.69;;;-9.15;97.25
71956;BME280;59829;50.562;6.258;2022-12-17T22:54:26;96609.25;;;-9.26;97.42
71956;BME280;59829;50.562;6.258;2022-12-17T23:04:27;96592.75;;;-9.21;97.74
71956;BME280;59829;50.562;6.258;2022-12-17T23:14:27;96587.75;;;-9.27;98.49
71956;BME280;59829;50.562;6.258;2022-12-17T23:24:27;96591.84;;;-9.32;98.89
71956;BME280;59829;50.562;6.258;2022-12-17T23:34:27;96613.22;;;-9.42;98.33
71956;BME280;59829;50.562;6.258;2022-12-17T23:44:28;96586.69;;;-9.52;98.07
71956;BME280;59829;50.562;6.258;2022-12-17T23:54:28;96588.78;;;-9.85;96.25
